createdAt,value
2018-10-07T00:00:50.271Z,99.08
2018-10-07T00:03:20.451Z,98.73
2018-10-07T00:05:50.665Z,98.93
2018-10-07T00:08:20.865Z,98.83
2018-10-07T00:10:51.053Z,98.60
2018-10-07T00:13:21.215Z,98.54
2018-10-07T00:15:51.413Z,97.92
2018-10-07T00:18:21.533Z,97.72
2018-10-07T00:20:51.779Z,97.10
2018-10-07T00:23:22.051Z,96.67
2018-10-07T00:25:52.424Z,97.53
2018-10-07T00:28:22.617Z,97.06
2018-10-07T00:30:52.838Z,96.91
2018-10-07T00:33:23.054Z,96.75
2018-10-07T00:35:53.261Z,97.15
2018-10-07T00:38:23.415Z,97.14
2018-10-07T00:40:53.520Z,97.66
2018-10-07T00:43:23.682Z,97.62
2018-10-07T00:45:53.837Z,97.49
2018-10-07T00:48:24.261Z,97.33
2018-10-07T00:50:54.448Z,97.75
2018-10-07T00:53:24.735Z,98.07
2018-10-07T00:55:55.068Z,97.94
2018-10-07T00:58:25.577Z,98.10
2018-10-07T01:00:55.755Z,98.15
2018-10-07T01:03:26.068Z,98.51
2018-10-07T01:05:56.477Z,98.95
2018-10-07T01:08:26.698Z,99.12
2018-10-07T01:10:56.922Z,98.86
2018-10-07T01:13:27.084Z,98.61
2018-10-07T01:15:57.225Z,99.28
2018-10-07T01:18:27.429Z,99.42
2018-10-07T01:20:57.701Z,99.87
2018-10-07T01:23:27.855Z,99.36
2018-10-07T01:25:58.058Z,99.32
2018-10-07T01:28:28.202Z,98.70
2018-10-07T01:30:58.368Z,98.94
2018-10-07T01:33:28.690Z,98.42
2018-10-07T01:35:58.913Z,98.40
2018-10-07T01:38:29.214Z,98.25
2018-10-07T01:40:59.644Z,98.83
2018-10-07T01:43:29.970Z,98.51
2018-10-07T01:46:00.129Z,98.08
2018-10-07T01:48:30.281Z,97.77
2018-10-07T01:51:00.384Z,98.06
2018-10-07T01:53:30.690Z,97.76
2018-10-07T01:56:00.884Z,98.03
2018-10-07T01:58:31.113Z,98.06
2018-10-07T02:01:01.282Z,98.08
2018-10-07T02:03:31.429Z,97.62
2018-10-07T02:06:01.550Z,97.79
2018-10-07T02:08:32.104Z,97.62
2018-10-07T02:11:02.282Z,97.38
2018-10-07T02:13:32.570Z,98.09
2018-10-07T02:16:02.695Z,97.29
2018-10-07T02:18:32.837Z,97.53
2018-10-07T02:21:02.982Z,97.25
2018-10-07T02:23:33.120Z,96.71
2018-10-07T02:26:03.342Z,96.33
2018-10-07T02:28:33.741Z,97.60
2018-10-07T02:31:04.071Z,97.84
2018-10-07T02:33:34.261Z,98.04
2018-10-07T02:36:04.559Z,97.99
2018-10-07T02:38:35.110Z,96.86
2018-10-07T02:41:05.234Z,97.16
2018-10-07T02:43:35.492Z,96.88
2018-10-07T02:46:05.670Z,96.56
2018-10-07T02:48:36.022Z,97.75
2018-10-07T02:51:06.711Z,97.91
2018-10-07T02:53:37.032Z,98.23
2018-10-07T02:56:07.833Z,98.78
2018-10-07T02:58:38.163Z,100.00
2018-10-07T03:01:08.781Z,100.00
2018-10-07T03:03:39.094Z,100.00
2018-10-07T03:06:09.399Z,100.00
2018-10-07T03:08:39.743Z,100.00
2018-10-07T03:11:10.139Z,100.00
2018-10-07T03:13:50.099Z,100.00
2018-10-07T03:16:20.315Z,100.00
2018-10-07T03:18:50.558Z,100.00
2018-10-07T03:21:21.195Z,100.00
2018-10-07T03:23:51.539Z,100.00
2018-10-07T03:26:22.341Z,100.00
2018-10-07T03:28:52.656Z,100.00
2018-10-07T03:31:22.834Z,100.00
2018-10-07T03:33:53.169Z,100.00
2018-10-07T03:36:23.695Z,100.00
2018-10-07T03:38:53.906Z,100.00
2018-10-07T03:41:25.868Z,100.00
2018-10-07T03:43:56.228Z,100.00
2018-10-07T03:46:26.400Z,100.00
2018-10-07T03:48:56.627Z,100.00
2018-10-07T03:51:26.933Z,100.00
2018-10-07T03:53:57.254Z,100.00
2018-10-07T03:56:27.447Z,100.00
2018-10-07T03:58:57.731Z,100.00
2018-10-07T04:01:28.305Z,100.00
2018-10-07T04:03:58.668Z,100.00
2018-10-07T04:06:28.888Z,100.00
2018-10-07T04:08:59.073Z,100.00
2018-10-07T04:11:29.353Z,100.00
2018-10-07T04:13:59.502Z,100.00
2018-10-07T04:16:29.739Z,100.00
2018-10-07T04:19:00.002Z,100.00
2018-10-07T04:21:30.151Z,100.00
2018-10-07T04:24:00.399Z,100.00
2018-10-07T04:26:30.698Z,100.00
2018-10-07T04:29:01.111Z,100.00
2018-10-07T04:31:31.280Z,100.00
2018-10-07T04:34:01.581Z,100.00
2018-10-07T04:36:31.790Z,100.00
2018-10-07T04:39:02.088Z,100.00
2018-10-07T04:41:32.260Z,100.00
2018-10-07T04:44:02.497Z,100.00
2018-10-07T04:46:32.843Z,100.00
2018-10-07T04:49:03.368Z,100.00
2018-10-07T04:51:33.864Z,100.00
2018-10-07T04:54:04.684Z,100.00
2018-10-07T04:56:35.765Z,100.00
2018-10-07T04:59:06.158Z,100.00
2018-10-07T05:01:36.278Z,100.00
2018-10-07T05:04:06.603Z,100.00
2018-10-07T05:06:37.448Z,100.00
2018-10-07T05:09:10.988Z,100.00
2018-10-07T05:11:43.268Z,100.00
2018-10-07T05:14:14.037Z,100.00
2018-10-07T05:16:50.781Z,100.00
2018-10-07T05:19:21.474Z,100.00
2018-10-07T05:21:51.710Z,100.00
2018-10-07T05:24:22.039Z,100.00
2018-10-07T05:26:52.217Z,100.00
2018-10-07T05:29:22.413Z,100.00
2018-10-07T05:31:53.543Z,100.00
2018-10-07T05:34:23.941Z,100.00
2018-10-07T05:36:54.143Z,100.00
2018-10-07T05:39:24.641Z,100.00
2018-10-07T05:41:54.992Z,100.00
2018-10-07T05:44:25.375Z,100.00
2018-10-07T05:46:55.671Z,100.00
2018-10-07T05:49:26.208Z,100.00
2018-10-07T05:51:56.362Z,100.00
2018-10-07T05:54:26.565Z,100.00
2018-10-07T05:56:56.796Z,100.00
2018-10-07T05:59:27.306Z,100.00
2018-10-07T06:02:01.302Z,99.22
2018-10-07T06:04:53.286Z,98.56
2018-10-07T06:07:25.527Z,98.16
2018-10-07T06:09:55.851Z,97.19
2018-10-07T06:12:26.283Z,96.90
2018-10-07T06:15:13.004Z,96.00
2018-10-07T06:17:44.340Z,95.13
2018-10-07T06:20:15.415Z,94.63
2018-10-07T06:22:46.168Z,95.47
2018-10-07T06:25:16.415Z,95.05
2018-10-07T06:27:46.686Z,95.32
2018-10-07T06:30:16.843Z,95.60
2018-10-07T06:32:47.286Z,93.34
2018-10-07T06:35:18.182Z,93.05
2018-10-07T06:37:48.480Z,93.12
2018-10-07T06:40:19.032Z,93.07
2018-10-07T06:42:49.356Z,91.54
2018-10-07T06:45:19.549Z,91.86
2018-10-07T06:47:50.304Z,91.59
2018-10-07T06:50:20.669Z,91.95
2018-10-07T06:52:51.084Z,91.39
2018-10-07T06:55:21.382Z,90.82
2018-10-07T06:57:51.623Z,90.61
2018-10-07T07:00:22.330Z,90.57
2018-10-07T07:02:53.090Z,89.22
2018-10-07T07:05:23.332Z,89.36
2018-10-07T07:07:53.671Z,87.55
2018-10-07T07:10:24.500Z,85.08
2018-10-07T07:12:54.832Z,87.03
2018-10-07T07:15:25.228Z,87.62
2018-10-07T07:17:55.373Z,87.52
2018-10-07T07:20:25.469Z,85.50
2018-10-07T07:22:55.711Z,87.61
2018-10-07T07:25:26.022Z,85.84
2018-10-07T07:27:56.695Z,85.02
2018-10-07T07:30:26.908Z,85.72
2018-10-07T07:32:57.072Z,84.55
2018-10-07T07:35:27.222Z,85.83
2018-10-07T07:37:57.478Z,84.27
2018-10-07T07:40:28.081Z,83.51
2018-10-07T07:42:58.333Z,83.99
2018-10-07T07:45:28.497Z,83.86
2018-10-07T07:47:59.581Z,84.14
2018-10-07T07:50:29.992Z,84.78
2018-10-07T07:53:00.254Z,85.39
2018-10-07T07:55:30.777Z,85.79
2018-10-07T07:58:01.241Z,84.35
2018-10-07T08:00:31.433Z,82.76
2018-10-07T08:03:01.686Z,74.33
2018-10-07T08:05:32.200Z,73.01
2018-10-07T08:08:02.371Z,70.12
2018-10-07T08:10:32.808Z,67.61
2018-10-07T08:13:04.036Z,65.30
2018-10-07T08:15:34.335Z,64.45
2018-10-07T08:18:04.527Z,64.44
2018-10-07T08:20:34.740Z,62.25
2018-10-07T08:23:05.008Z,61.99
2018-10-07T08:25:36.167Z,62.04
2018-10-07T08:28:06.369Z,60.90
2018-10-07T08:30:37.789Z,61.54
2018-10-07T08:33:08.471Z,62.50
2018-10-07T08:35:38.956Z,59.84
2018-10-07T08:38:09.273Z,59.42
2018-10-07T08:40:39.607Z,60.23
2018-10-07T08:43:10.126Z,60.71
2018-10-07T08:45:40.732Z,61.04
2018-10-07T08:48:11.175Z,57.62
2018-10-07T08:50:41.493Z,58.63
2018-10-07T08:53:11.732Z,58.38
2018-10-07T08:55:42.068Z,61.01
2018-10-07T08:58:13.341Z,61.29
2018-10-07T09:00:44.602Z,60.65
2018-10-07T09:03:15.871Z,61.12
2018-10-07T09:05:46.041Z,59.15
2018-10-07T09:08:16.288Z,57.95
2018-10-07T09:10:46.693Z,58.29
2018-10-07T09:13:16.932Z,58.88
2018-10-07T09:15:47.570Z,59.98
2018-10-07T09:18:17.912Z,61.22
2018-10-07T09:20:48.137Z,60.90
2018-10-07T09:23:18.279Z,61.03
2018-10-07T09:25:48.955Z,61.01
2018-10-07T09:28:19.396Z,61.48
2018-10-07T09:30:49.681Z,60.22
2018-10-07T09:33:19.805Z,61.05
2018-10-07T09:35:50.056Z,60.51
2018-10-07T09:38:20.311Z,60.65
2018-10-07T09:40:50.601Z,62.04
2018-10-07T09:43:20.766Z,62.05
2018-10-07T09:45:53.415Z,60.21
2018-10-07T09:48:23.717Z,60.86
2018-10-07T09:50:54.010Z,60.88
2018-10-07T09:53:24.173Z,61.05
2018-10-07T09:55:54.799Z,61.76
2018-10-07T09:58:25.169Z,62.02
2018-10-07T10:00:55.488Z,60.71
2018-10-07T10:03:25.667Z,61.59
2018-10-07T10:05:55.873Z,61.96
2018-10-07T10:08:26.013Z,60.45
2018-10-07T10:10:56.837Z,61.89
2018-10-07T10:13:27.124Z,59.85
2018-10-07T10:15:57.382Z,59.27
2018-10-07T10:18:51.227Z,60.21
2018-10-07T10:21:35.878Z,58.29
2018-10-07T10:24:48.791Z,59.61
2018-10-07T10:27:34.558Z,58.56
2018-10-07T10:30:11.912Z,59.07
2018-10-07T10:33:16.025Z,59.71
2018-10-07T10:35:57.028Z,58.67
2018-10-07T10:39:10.402Z,58.71
2018-10-07T10:42:06.940Z,56.98
2018-10-07T10:44:47.917Z,57.04
2018-10-07T10:47:38.129Z,57.52
2018-10-07T10:50:34.361Z,57.45
2018-10-07T10:53:44.704Z,57.95
2018-10-07T10:56:24.529Z,58.02
2018-10-07T10:59:24.915Z,56.85
2018-10-07T11:02:25.200Z,57.74
2018-10-07T11:06:10.614Z,55.85
2018-10-07T11:08:56.461Z,56.16
2018-10-07T11:15:22.059Z,56.30
2018-10-07T11:19:08.651Z,57.06
2018-10-07T11:21:55.695Z,55.72
2018-10-07T11:24:40.862Z,56.05
2018-10-07T11:28:31.426Z,56.03
2018-10-07T11:32:46.049Z,56.00
2018-10-07T11:36:34.249Z,53.82
2018-10-07T11:39:23.442Z,56.28
2018-10-07T11:42:04.848Z,53.81
2018-10-07T11:45:14.546Z,53.75
2018-10-07T11:50:09.039Z,54.03
2018-10-07T11:53:21.875Z,53.90
2018-10-07T11:55:51.986Z,54.03
2018-10-07T11:58:22.356Z,53.59
2018-10-07T12:00:53.744Z,53.43
2018-10-07T12:03:24.251Z,54.11
2018-10-07T12:05:54.535Z,53.28
2018-10-07T12:08:24.879Z,53.34
2018-10-07T12:10:55.136Z,53.00
2018-10-07T12:13:25.403Z,53.36
2018-10-07T12:15:55.587Z,54.35
2018-10-07T12:18:26.329Z,52.60
2018-10-07T12:20:56.547Z,52.52
2018-10-07T12:23:33.462Z,52.74
2018-10-07T12:26:04.986Z,53.31
2018-10-07T12:28:35.184Z,53.25
2018-10-07T12:31:06.142Z,53.69
2018-10-07T12:33:36.629Z,53.26
2018-10-07T12:36:07.489Z,53.92
2018-10-07T12:38:37.966Z,54.58
2018-10-07T12:41:09.541Z,52.47
2018-10-07T12:43:39.875Z,52.86
2018-10-07T12:46:10.353Z,52.31
2018-10-07T12:48:40.730Z,52.61
2018-10-07T12:51:10.942Z,52.73
2018-10-07T12:53:41.259Z,52.06
2018-10-07T12:56:11.627Z,52.23
2018-10-07T12:58:42.186Z,52.35
2018-10-07T13:01:13.290Z,51.77
2018-10-07T13:03:43.727Z,52.10
2018-10-07T13:06:14.214Z,52.79
2018-10-07T13:08:44.576Z,52.57
2018-10-07T13:11:14.981Z,51.78
2018-10-07T13:13:45.828Z,51.56
2018-10-07T13:16:16.032Z,51.16
2018-10-07T13:18:46.165Z,50.86
2018-10-07T13:21:16.670Z,50.71
2018-10-07T13:23:46.892Z,51.73
2018-10-07T13:26:17.464Z,51.34
2018-10-07T13:28:48.275Z,51.21
2018-10-07T13:31:18.766Z,51.72
2018-10-07T13:33:48.995Z,49.66
2018-10-07T13:36:19.198Z,50.17
2018-10-07T13:38:49.515Z,50.66
2018-10-07T13:41:20.266Z,48.81
2018-10-07T13:43:50.389Z,48.14
2018-10-07T13:46:21.118Z,48.42
2018-10-07T13:48:51.710Z,49.21
2018-10-07T13:51:21.998Z,48.39
2018-10-07T13:53:52.199Z,48.74
2018-10-07T13:56:22.535Z,49.24
2018-10-07T13:58:52.928Z,49.21
2018-10-07T14:01:23.481Z,48.94
2018-10-07T14:03:53.817Z,48.82
2018-10-07T14:06:24.378Z,48.94
2018-10-07T14:08:54.540Z,49.21
2018-10-07T14:11:24.745Z,52.06
2018-10-07T14:13:55.007Z,50.85
2018-10-07T14:16:25.501Z,51.15
2018-10-07T14:18:55.702Z,51.13
2018-10-07T14:21:25.835Z,50.47
2018-10-07T14:23:56.381Z,50.85
2018-10-07T14:26:32.589Z,53.09
2018-10-07T14:29:03.360Z,50.68
2018-10-07T14:31:33.585Z,50.81
2018-10-07T14:34:03.801Z,51.19
2018-10-07T14:36:34.027Z,50.75
2018-10-07T14:39:04.532Z,51.15
2018-10-07T14:41:34.944Z,52.82
2018-10-07T14:44:05.180Z,50.66
2018-10-07T14:46:35.371Z,50.13
2018-10-07T14:49:05.581Z,50.33
2018-10-07T14:51:35.823Z,49.38
2018-10-07T14:54:06.082Z,47.89
2018-10-07T14:56:36.141Z,47.67
2018-10-07T14:59:06.644Z,48.07
2018-10-07T15:01:36.796Z,48.22
2018-10-07T15:04:07.171Z,48.28
2018-10-07T15:06:37.506Z,48.29
2018-10-07T15:09:11.153Z,48.30
2018-10-07T15:11:41.700Z,50.83
2018-10-07T15:14:12.010Z,49.53
2018-10-07T15:16:42.498Z,49.90
2018-10-07T15:19:13.229Z,50.68
2018-10-07T15:21:43.493Z,50.25
2018-10-07T15:24:14.090Z,50.31
2018-10-07T15:26:44.668Z,50.38
2018-10-07T15:29:15.141Z,50.56
2018-10-07T15:31:45.583Z,50.40
2018-10-07T15:34:16.379Z,50.16
2018-10-07T15:36:47.083Z,50.79
2018-10-07T15:39:17.350Z,50.19
2018-10-07T15:41:48.184Z,49.86
2018-10-07T15:44:18.496Z,49.06
2018-10-07T15:46:48.744Z,48.92
2018-10-07T15:49:19.283Z,48.74
2018-10-07T15:51:49.970Z,49.01
2018-10-07T15:54:20.392Z,49.59
2018-10-07T15:56:50.899Z,50.18
2018-10-07T15:59:21.227Z,50.44
2018-10-07T16:01:51.572Z,51.45
2018-10-07T16:04:22.331Z,52.21
2018-10-07T16:06:52.706Z,52.79
2018-10-07T16:09:23.185Z,52.39
2018-10-07T16:11:53.841Z,52.61
2018-10-07T16:14:24.620Z,52.67
2018-10-07T16:16:55.097Z,53.17
2018-10-07T16:19:25.546Z,53.16
2018-10-07T16:21:55.858Z,53.72
2018-10-07T16:24:26.466Z,55.03
2018-10-07T16:26:56.551Z,55.67
2018-10-07T16:29:27.153Z,55.56
2018-10-07T16:31:57.713Z,55.42
2018-10-07T16:34:29.582Z,56.20
2018-10-07T16:36:59.746Z,56.63
2018-10-07T16:39:29.894Z,57.67
2018-10-07T16:42:00.088Z,57.59
2018-10-07T16:44:30.270Z,57.91
2018-10-07T16:47:00.477Z,58.42
2018-10-07T16:49:30.918Z,59.01
2018-10-07T16:52:01.038Z,58.93
2018-10-07T16:54:31.330Z,60.05
2018-10-07T16:57:01.791Z,59.43
2018-10-07T16:59:32.097Z,60.90
2018-10-07T17:02:02.556Z,62.26
2018-10-07T17:04:33.049Z,62.57
2018-10-07T17:07:03.266Z,64.00
2018-10-07T17:09:33.586Z,64.93
2018-10-07T17:12:03.932Z,65.92
2018-10-07T17:14:34.055Z,65.96
2018-10-07T17:17:04.363Z,66.68
2018-10-07T17:19:34.507Z,66.70
2018-10-07T17:22:04.673Z,67.60
2018-10-07T17:24:34.805Z,67.64
2018-10-07T17:27:04.996Z,67.74
2018-10-07T17:29:35.254Z,69.29
2018-10-07T17:32:05.778Z,69.40
2018-10-07T17:34:36.012Z,69.20
2018-10-07T17:37:06.063Z,69.68
2018-10-07T17:39:36.237Z,69.80
2018-10-07T17:42:06.375Z,69.39
2018-10-07T17:44:36.480Z,68.64
2018-10-07T17:47:06.529Z,67.38
2018-10-07T17:49:36.727Z,68.67
2018-10-07T17:52:07.005Z,68.27
2018-10-07T17:54:37.355Z,68.66
2018-10-07T17:57:07.518Z,68.72
2018-10-07T17:59:37.776Z,69.21
2018-10-07T18:02:08.143Z,69.13
2018-10-07T18:04:38.334Z,69.87
2018-10-07T18:07:08.502Z,70.33
2018-10-07T18:09:38.678Z,70.83
2018-10-07T18:12:08.937Z,70.83
2018-10-07T18:14:39.166Z,71.71
2018-10-07T18:17:09.571Z,71.94
2018-10-07T18:19:39.837Z,72.65
2018-10-07T18:22:09.963Z,73.23
2018-10-07T18:24:40.127Z,73.21
2018-10-07T18:27:10.315Z,73.04
2018-10-07T18:29:40.454Z,74.17
2018-10-07T18:32:10.539Z,74.76
2018-10-07T18:34:41.578Z,74.76
2018-10-07T18:37:11.780Z,75.41
2018-10-07T18:39:41.865Z,75.51
2018-10-07T18:42:12.082Z,75.64
2018-10-07T18:44:42.305Z,75.91
2018-10-07T18:47:12.464Z,76.76
2018-10-07T18:49:42.690Z,76.84
2018-10-07T18:52:12.780Z,76.95
2018-10-07T18:54:43.164Z,77.14
2018-10-07T18:57:13.337Z,78.08
2018-10-07T18:59:43.565Z,78.29
2018-10-07T19:02:13.678Z,78.75
2018-10-07T19:04:43.808Z,78.85
2018-10-07T19:07:13.997Z,79.76
2018-10-07T19:09:46.467Z,79.91
2018-10-07T19:12:16.944Z,80.87
2018-10-07T19:14:52.476Z,81.15
2018-10-07T19:17:24.537Z,81.94
2018-10-07T19:19:55.933Z,81.38
2018-10-07T19:22:29.984Z,82.36
2018-10-07T19:25:00.157Z,82.44
2018-10-07T19:27:30.210Z,82.84
2018-10-07T19:30:00.499Z,82.53
2018-10-07T19:32:30.684Z,82.33
2018-10-07T19:35:00.955Z,81.96
2018-10-07T19:37:31.360Z,80.21
2018-10-07T19:40:05.214Z,80.26
2018-10-07T19:42:49.386Z,80.22
2018-10-07T19:45:20.270Z,79.83
2018-10-07T19:47:50.430Z,80.71
2018-10-07T19:50:20.599Z,81.57
2018-10-07T19:52:50.784Z,82.80
2018-10-07T19:55:21.002Z,82.80
2018-10-07T19:57:51.076Z,82.79
2018-10-07T20:00:21.238Z,83.13
2018-10-07T20:02:53.468Z,82.98
2018-10-07T20:05:34.757Z,83.28
2018-10-07T20:08:09.351Z,83.18
2018-10-07T20:10:42.490Z,83.83
2018-10-07T20:13:17.101Z,84.33
2018-10-07T20:15:49.335Z,84.97
2018-10-07T20:18:19.514Z,85.28
2018-10-07T20:20:49.740Z,85.62
2018-10-07T20:23:19.849Z,86.31
2018-10-07T20:25:50.060Z,86.09
2018-10-07T20:28:20.193Z,85.56
2018-10-07T20:30:50.355Z,86.00
2018-10-07T20:33:20.541Z,86.69
2018-10-07T20:35:50.696Z,86.50
2018-10-07T20:38:20.899Z,86.93
2018-10-07T20:40:51.278Z,86.62
2018-10-07T20:43:21.296Z,86.73
2018-10-07T20:45:51.531Z,86.62
2018-10-07T20:48:21.787Z,86.95
2018-10-07T20:50:51.943Z,87.74
2018-10-07T20:53:22.083Z,87.61
2018-10-07T20:55:52.379Z,88.69
2018-10-07T20:58:22.540Z,88.48
2018-10-07T21:00:52.769Z,89.16
2018-10-07T21:03:23.009Z,89.63
2018-10-07T21:05:53.305Z,89.30
2018-10-07T21:08:23.428Z,90.12
2018-10-07T21:10:53.550Z,90.16
2018-10-07T21:13:23.682Z,90.51
2018-10-07T21:15:53.853Z,89.93
2018-10-07T21:18:23.999Z,89.53
2018-10-07T21:20:54.278Z,88.75
2018-10-07T21:23:24.361Z,88.99
2018-10-07T21:25:54.483Z,89.88
2018-10-07T21:28:24.608Z,90.16
2018-10-07T21:30:54.863Z,90.34
2018-10-07T21:33:25.140Z,90.89
2018-10-07T21:35:55.289Z,90.93
2018-10-07T21:38:25.348Z,91.23
2018-10-07T21:40:55.516Z,91.54
2018-10-07T21:43:26.128Z,92.52
2018-10-07T21:45:56.398Z,92.27
2018-10-07T21:48:26.506Z,92.37
2018-10-07T21:50:56.783Z,92.02
2018-10-07T21:53:26.895Z,92.07
2018-10-07T21:55:57.080Z,92.61
2018-10-07T21:58:27.180Z,92.09
2018-10-07T22:00:57.368Z,92.71
2018-10-07T22:03:27.542Z,92.90
2018-10-07T22:05:57.725Z,93.46
2018-10-07T22:08:28.002Z,93.69
2018-10-07T22:10:58.113Z,94.16
2018-10-07T22:13:28.254Z,94.25
2018-10-07T22:15:58.378Z,94.86
2018-10-07T22:18:28.588Z,95.25
2018-10-07T22:20:58.726Z,95.90
2018-10-07T22:23:28.817Z,96.39
2018-10-07T22:25:58.938Z,96.25
2018-10-07T22:28:29.066Z,96.77
2018-10-07T22:30:59.237Z,96.53
2018-10-07T22:33:29.323Z,96.27
2018-10-07T22:35:59.647Z,96.41
2018-10-07T22:38:29.797Z,96.14
2018-10-07T22:41:00.092Z,96.96
2018-10-07T22:43:30.677Z,97.12
2018-10-07T22:46:00.861Z,97.42
2018-10-07T22:48:30.960Z,97.67
2018-10-07T22:51:01.180Z,97.68
2018-10-07T22:53:31.422Z,97.32
2018-10-07T22:56:01.643Z,97.51
2018-10-07T22:58:31.753Z,97.81
2018-10-07T23:01:01.886Z,97.87
2018-10-07T23:03:31.985Z,97.75
2018-10-07T23:06:09.012Z,98.03
2018-10-07T23:08:39.091Z,97.58
2018-10-07T23:11:09.285Z,98.43
2018-10-07T23:13:39.403Z,98.86
2018-10-07T23:16:09.575Z,98.84
2018-10-07T23:18:39.844Z,99.32
2018-10-07T23:21:10.225Z,99.29
2018-10-07T23:23:41.184Z,99.55
2018-10-07T23:26:11.405Z,100.00
2018-10-07T23:28:41.509Z,100.00
2018-10-07T23:31:11.698Z,100.00
2018-10-07T23:33:41.767Z,100.00
2018-10-07T23:36:11.864Z,100.00
2018-10-07T23:38:41.987Z,100.00
2018-10-07T23:41:12.287Z,100.00
2018-10-07T23:43:42.420Z,100.00
2018-10-07T23:46:12.637Z,100.00
2018-10-07T23:48:42.939Z,100.00
2018-10-07T23:51:13.117Z,100.00
2018-10-07T23:53:43.193Z,100.00
2018-10-07T23:56:13.445Z,100.00
2018-10-07T23:58:43.821Z,100.00
